createdAt,value
2018-08-11T00:00:42.097Z,1.87
2018-08-11T00:03:10.496Z,1.57
2018-08-11T00:05:38.842Z,1.80
2018-08-11T00:08:07.315Z,1.97
2018-08-11T00:10:35.759Z,1.50
2018-08-11T00:13:04.177Z,1.83
2018-08-11T00:15:32.589Z,1.87
2018-08-11T00:18:00.958Z,2.00
2018-08-11T00:20:29.744Z,2.20
2018-08-11T00:22:58.120Z,2.23
2018-08-11T00:25:26.556Z,1.90
2018-08-11T00:27:54.970Z,2.50
2018-08-11T00:30:23.410Z,2.70
2018-08-11T00:32:51.808Z,3.10
2018-08-11T00:35:20.140Z,2.70
2018-08-11T00:37:48.491Z,3.67
2018-08-11T00:40:19.795Z,3.73
2018-08-11T00:42:49.286Z,4.37
2018-08-11T00:45:18.288Z,4.17
2018-08-11T00:47:46.812Z,3.63
2018-08-11T00:50:24.781Z,4.10
2018-08-11T00:52:53.435Z,4.60
2018-08-11T00:55:21.824Z,4.10
2018-08-11T00:57:50.280Z,4.90
2018-08-11T01:00:19.451Z,4.90
2018-08-11T01:02:47.864Z,4.43
2018-08-11T01:05:17.956Z,4.70
2018-08-11T01:07:46.962Z,5.73
2018-08-11T01:10:15.697Z,6.33
2018-08-11T01:12:44.892Z,5.70
2018-08-11T01:15:17.127Z,6.53
2018-08-11T01:17:46.236Z,7.43
2018-08-11T01:20:14.905Z,7.53
2018-08-11T01:22:44.277Z,7.60
2018-08-11T01:25:13.233Z,7.20
2018-08-11T01:27:41.657Z,6.93
2018-08-11T01:30:13.412Z,7.47
2018-08-11T01:32:41.813Z,7.60
2018-08-11T01:35:10.839Z,7.83
2018-08-11T01:37:39.876Z,7.30
2018-08-11T01:40:10.075Z,7.53
2018-08-11T01:42:40.064Z,7.23
2018-08-11T01:45:09.273Z,6.83
2018-08-11T01:47:37.976Z,6.80
2018-08-11T01:50:07.300Z,6.80
2018-08-11T01:52:35.759Z,7.20
2018-08-11T01:55:04.606Z,6.80
2018-08-11T01:57:33.052Z,7.23
2018-08-11T02:00:01.417Z,7.63
2018-08-11T02:02:29.907Z,7.53
2018-08-11T02:04:58.277Z,8.63
2018-08-11T02:07:26.627Z,7.40
2018-08-11T02:09:54.998Z,7.70
2018-08-11T02:12:23.950Z,8.30
2018-08-11T02:14:52.750Z,7.40
2018-08-11T02:17:21.506Z,8.00
2018-08-11T02:19:50.432Z,7.87
2018-08-11T02:22:19.288Z,7.67
2018-08-11T02:24:47.968Z,7.33
2018-08-11T02:27:16.730Z,8.30
2018-08-11T02:29:45.756Z,7.57
2018-08-11T02:32:14.200Z,7.53
2018-08-11T02:34:42.610Z,7.63
2018-08-11T02:37:11.251Z,8.00
2018-08-11T02:48:38.181Z,8.27
2018-08-11T02:51:07.274Z,8.07
2018-08-11T02:53:35.663Z,7.23
2018-08-11T02:56:04.616Z,9.17
2018-08-11T02:58:33.473Z,8.77
2018-08-11T03:01:02.498Z,8.07
2018-08-11T03:03:31.331Z,7.83
2018-08-11T03:06:00.234Z,9.87
2018-08-11T03:08:28.669Z,8.70
2018-08-11T03:10:57.683Z,8.30
2018-08-11T03:13:26.552Z,8.60
2018-08-11T03:15:55.308Z,8.57
2018-08-11T03:18:23.864Z,8.23
2018-08-11T03:20:52.915Z,8.53
2018-08-11T03:23:21.884Z,8.40
2018-08-11T03:25:50.962Z,8.23
2018-08-11T03:28:19.967Z,8.83
2018-08-11T03:30:49.098Z,9.30
2018-08-11T03:33:18.196Z,8.80
2018-08-11T03:35:47.020Z,8.93
2018-08-11T03:38:15.782Z,9.43
2018-08-11T03:40:44.806Z,8.47
2018-08-11T03:43:13.897Z,8.57
2018-08-11T03:45:43.001Z,8.47
2018-08-11T03:48:12.014Z,9.33
2018-08-11T03:50:40.381Z,9.23
2018-08-11T03:53:09.469Z,8.30
2018-08-11T03:55:38.388Z,8.30
2018-08-11T03:58:07.612Z,9.03
2018-08-11T04:00:36.753Z,8.30
2018-08-11T04:03:05.583Z,8.43
2018-08-11T04:05:34.466Z,8.40
2018-08-11T04:08:02.898Z,8.70
2018-08-11T04:10:31.879Z,8.00
2018-08-11T04:13:00.267Z,8.17
2018-08-11T04:15:29.428Z,8.60
2018-08-11T04:17:58.529Z,8.17
2018-08-11T04:20:27.219Z,8.10
2018-08-11T04:22:56.122Z,8.67
2018-08-11T04:25:25.247Z,7.80
2018-08-11T04:27:54.160Z,8.03
2018-08-11T04:30:23.267Z,8.13
2018-08-11T04:32:51.916Z,7.67
2018-08-11T04:35:20.248Z,7.90
2018-08-11T04:37:48.617Z,8.17
2018-08-11T04:40:16.986Z,7.90
2018-08-11T04:42:45.337Z,7.43
2018-08-11T04:45:13.735Z,7.03
2018-08-11T04:47:42.134Z,7.23
2018-08-11T04:50:10.540Z,7.20
2018-08-11T04:52:38.892Z,6.97
2018-08-11T04:55:07.452Z,7.13
2018-08-11T04:57:35.898Z,7.17
2018-08-11T05:00:05.170Z,6.83
2018-08-11T05:02:33.555Z,7.03
2018-08-11T05:05:01.973Z,6.40
2018-08-11T05:07:30.361Z,7.33
2018-08-11T05:09:58.692Z,7.47
2018-08-11T05:12:27.092Z,6.77
2018-08-11T05:14:55.516Z,6.33
2018-08-11T05:17:23.956Z,6.63
2018-08-11T05:19:52.720Z,6.40
2018-08-11T05:22:21.077Z,6.10
2018-08-11T05:24:49.509Z,6.57
2018-08-11T05:27:17.883Z,5.70
2018-08-11T05:29:46.296Z,6.80
2018-08-11T05:32:14.686Z,6.37
2018-08-11T05:34:43.101Z,5.93
2018-08-11T05:37:11.503Z,5.63
2018-08-11T05:39:39.898Z,5.90
2018-08-11T05:42:08.261Z,6.37
2018-08-11T05:44:36.643Z,6.10
2018-08-11T05:47:05.814Z,5.80
2018-08-11T05:49:34.281Z,6.20
2018-08-11T05:52:02.634Z,6.03
2018-08-11T05:54:31.012Z,6.00
2018-08-11T05:56:59.368Z,6.07
2018-08-11T05:59:27.733Z,5.67
2018-08-11T06:01:56.061Z,6.03
2018-08-11T06:04:24.440Z,6.00
2018-08-11T06:06:52.790Z,5.40
2018-08-11T06:09:21.176Z,5.37
2018-08-11T06:11:49.560Z,6.57
2018-08-11T06:14:17.955Z,5.13
2018-08-11T06:16:46.391Z,5.60
2018-08-11T06:19:14.839Z,4.83
2018-08-11T06:21:43.191Z,4.80
2018-08-11T06:24:11.547Z,5.17
2018-08-11T06:26:39.920Z,5.10
2018-08-11T06:29:08.270Z,5.63
2018-08-11T06:31:36.770Z,4.17
2018-08-11T06:34:06.036Z,4.80
2018-08-11T06:36:34.425Z,4.20
2018-08-11T06:39:02.919Z,4.50
2018-08-11T06:41:31.315Z,4.50
2018-08-11T06:43:59.713Z,3.53
2018-08-11T06:46:28.052Z,3.67
2018-08-11T06:48:56.456Z,3.70
2018-08-11T06:51:24.846Z,3.90
2018-08-11T06:53:53.196Z,3.70
2018-08-11T06:56:21.591Z,4.00
2018-08-11T06:58:49.972Z,4.03
2018-08-11T07:01:18.316Z,3.60
2018-08-11T07:03:46.679Z,3.77
2018-08-11T07:06:15.105Z,3.50
2018-08-11T07:08:43.529Z,3.60
2018-08-11T07:11:11.919Z,3.33
2018-08-11T07:13:40.321Z,3.93
2018-08-11T07:16:08.682Z,3.80
2018-08-11T07:18:37.057Z,3.53
2018-08-11T07:21:05.955Z,3.70
2018-08-11T07:23:34.322Z,3.47
2018-08-11T07:26:02.715Z,3.57
2018-08-11T07:28:31.068Z,3.80
2018-08-11T07:30:59.470Z,3.13
2018-08-11T07:33:28.012Z,3.57
2018-08-11T07:35:56.800Z,3.00
2018-08-11T07:38:25.177Z,3.23
2018-08-11T07:40:53.521Z,3.57
2018-08-11T07:43:21.902Z,3.50
2018-08-11T07:45:51.398Z,3.33
2018-08-11T07:48:19.736Z,3.67
2018-08-11T07:50:48.117Z,3.47
2018-08-11T07:53:16.518Z,3.20
2018-08-11T07:55:44.984Z,3.47
2018-08-11T07:58:13.365Z,3.70
2018-08-11T08:00:41.725Z,3.30
2018-08-11T08:03:10.105Z,3.03
2018-08-11T08:05:38.428Z,3.23
2018-08-11T08:08:06.875Z,2.47
2018-08-11T08:10:35.237Z,2.37
2018-08-11T08:13:03.573Z,2.37
2018-08-11T08:15:31.959Z,2.73
2018-08-11T08:18:00.317Z,2.97
2018-08-11T08:20:28.669Z,2.47
2018-08-11T08:22:57.007Z,2.90
2018-08-11T08:25:25.389Z,2.80
2018-08-11T08:27:54.033Z,2.67
2018-08-11T08:30:22.432Z,2.73
2018-08-11T08:32:50.825Z,2.20
2018-08-11T08:35:19.473Z,2.40
2018-08-11T08:37:49.653Z,2.43
2018-08-11T08:40:18.045Z,2.27
2018-08-11T08:42:46.377Z,2.40
2018-08-11T08:45:15.043Z,2.40
2018-08-11T08:47:43.411Z,3.00
2018-08-11T08:50:11.767Z,2.40
2018-08-11T08:52:40.113Z,2.10
2018-08-11T08:55:08.436Z,2.00
2018-08-11T08:57:36.889Z,2.33
2018-08-11T09:00:05.668Z,1.90
2018-08-11T09:02:34.052Z,1.80
2018-08-11T09:05:04.395Z,2.10
2018-08-11T09:07:32.837Z,1.67
2018-08-11T09:10:01.188Z,2.20
2018-08-11T09:12:29.574Z,1.93
2018-08-11T09:14:57.988Z,2.00
2018-08-11T09:17:26.688Z,1.57
2018-08-11T09:19:55.063Z,1.60
2018-08-11T09:22:23.444Z,1.20
2018-08-11T09:24:51.809Z,1.43
2018-08-11T09:27:20.252Z,1.00
2018-08-11T09:29:48.655Z,1.10
2018-08-11T09:32:17.035Z,1.13
2018-08-11T09:34:45.445Z,1.07
2018-08-11T09:37:13.856Z,1.17
2018-08-11T09:39:42.272Z,1.33
2018-08-11T09:42:10.682Z,1.00
2018-08-11T09:44:39.125Z,1.07
2018-08-11T09:47:07.711Z,0.83
2018-08-11T09:49:36.130Z,0.80
2018-08-11T09:52:04.577Z,1.20
2018-08-11T09:54:32.970Z,0.90
2018-08-11T09:57:01.453Z,1.20
2018-08-11T09:59:29.835Z,1.40
2018-08-11T10:02:03.776Z,1.37
2018-08-11T10:04:32.186Z,1.20
2018-08-11T10:07:00.554Z,0.90
2018-08-11T10:09:28.993Z,1.20
2018-08-11T10:11:57.420Z,0.80
2018-08-11T10:14:25.854Z,1.00
2018-08-11T10:16:54.269Z,1.00
2018-08-11T10:19:22.637Z,0.73
2018-08-11T10:21:51.089Z,1.20
2018-08-11T10:24:19.560Z,0.90
2018-08-11T10:26:48.052Z,0.87
2018-08-11T10:29:16.512Z,0.90
2018-08-11T10:31:44.912Z,0.70
2018-08-11T10:34:13.303Z,0.70
2018-08-11T10:36:41.685Z,0.80
2018-08-11T10:39:12.324Z,0.93
2018-08-11T10:41:41.112Z,1.17
2018-08-11T10:44:11.054Z,1.10
2018-08-11T10:46:39.624Z,1.17
2018-08-11T10:49:08.061Z,1.30
2018-08-11T10:51:36.715Z,1.03
2018-08-11T10:54:05.223Z,1.27
2018-08-11T10:56:33.981Z,1.00
2018-08-11T10:59:02.422Z,0.90
2018-08-11T11:01:30.838Z,1.20
2018-08-11T11:03:59.262Z,0.83
2018-08-11T11:06:33.734Z,0.93
2018-08-11T11:09:02.129Z,1.03
2018-08-11T11:11:30.512Z,1.07
2018-08-11T11:13:58.913Z,1.00
2018-08-11T11:16:27.289Z,1.23
2018-08-11T11:18:55.664Z,1.10
2018-08-11T11:21:24.021Z,1.47
2018-08-11T11:23:52.441Z,0.90
2018-08-11T11:26:20.839Z,1.50
2018-08-11T11:28:49.900Z,1.07
2018-08-11T11:31:18.316Z,1.20
2018-08-11T11:33:47.116Z,0.90
2018-08-11T11:36:15.878Z,1.00
2018-08-11T11:38:44.344Z,1.20
2018-08-11T11:41:12.762Z,1.10
2018-08-11T11:43:41.152Z,0.80
2018-08-11T11:46:09.572Z,1.10
2018-08-11T11:48:38.261Z,0.90
2018-08-11T11:51:06.910Z,1.10
2018-08-11T11:53:35.346Z,1.00
2018-08-11T12:02:49.517Z,1.00
2018-08-11T12:05:18.005Z,1.13
2018-08-11T12:07:46.541Z,1.00
2018-08-11T12:10:15.136Z,1.00
2018-08-11T12:12:43.731Z,1.13
2018-08-11T12:15:12.932Z,1.13
2018-08-11T12:17:42.330Z,1.60
2018-08-11T12:20:10.857Z,1.30
2018-08-11T12:22:39.329Z,1.40
2018-08-11T12:25:08.165Z,0.80
2018-08-11T12:27:36.789Z,1.50
2018-08-11T12:30:07.112Z,1.20
2018-08-11T12:32:35.752Z,1.10
2018-08-11T12:35:04.416Z,0.90
2018-08-11T12:37:32.828Z,0.70
2018-08-11T12:40:01.234Z,0.83
2018-08-11T12:42:29.665Z,1.00
2018-08-11T12:44:58.131Z,0.93
2018-08-11T12:47:26.847Z,1.17
2018-08-11T12:49:55.339Z,1.10
2018-08-11T12:52:23.743Z,0.90
2018-08-11T12:54:52.795Z,1.00
2018-08-11T12:57:21.275Z,1.03
2018-08-11T12:59:49.696Z,1.10
2018-08-11T13:02:18.055Z,0.80
2018-08-11T13:04:46.428Z,0.83
2018-08-11T13:07:14.912Z,0.90
2018-08-11T13:09:43.328Z,0.97
2018-08-11T13:12:11.763Z,0.77
2018-08-11T13:14:40.282Z,1.10
2018-08-11T13:17:08.703Z,1.20
2018-08-11T13:19:37.168Z,0.90
2018-08-11T13:22:05.654Z,0.93
2018-08-11T13:24:34.072Z,0.77
2018-08-11T13:27:02.512Z,0.90
2018-08-11T13:29:30.945Z,0.90
2018-08-11T13:31:59.476Z,1.03
2018-08-11T13:34:28.085Z,0.77
2018-08-11T13:36:56.477Z,1.00
2018-08-11T13:39:25.139Z,0.97
2018-08-11T13:41:53.622Z,1.13
2018-08-11T13:44:22.028Z,0.73
2018-08-11T13:46:50.440Z,0.90
2018-08-11T13:49:19.112Z,0.90
2018-08-11T13:51:47.566Z,1.10
2018-08-11T13:54:16.022Z,1.10
2018-08-11T13:56:44.586Z,1.00
2018-08-11T13:59:13.330Z,1.30
2018-08-11T14:01:41.792Z,0.97
2018-08-11T14:04:10.202Z,0.87
2018-08-11T14:06:38.765Z,1.57
2018-08-11T14:09:07.943Z,1.10
2018-08-11T14:11:36.358Z,0.80
2018-08-11T14:14:04.983Z,1.17
2018-08-11T14:16:33.829Z,1.17
2018-08-11T14:19:02.348Z,1.20
2018-08-11T14:21:30.936Z,1.13
2018-08-11T14:23:59.506Z,1.10
2018-08-11T14:26:28.163Z,1.57
2018-08-11T14:28:56.787Z,1.53
2018-08-11T14:31:25.346Z,1.10
2018-08-11T14:33:53.719Z,1.17
2018-08-11T14:36:22.388Z,1.20
2018-08-11T14:38:50.918Z,1.33
2018-08-11T14:41:19.282Z,1.20
2018-08-11T14:43:47.870Z,1.10
2018-08-11T14:46:17.071Z,1.40
2018-08-11T14:48:45.503Z,1.63
2018-08-11T14:51:13.945Z,1.30
2018-08-11T14:53:42.655Z,1.20
2018-08-11T14:56:11.380Z,1.23
2018-08-11T14:58:39.892Z,1.43
2018-08-11T15:01:08.553Z,1.60
2018-08-11T15:03:36.918Z,1.73
2018-08-11T15:06:06.272Z,1.30
2018-08-11T15:08:35.071Z,1.87
2018-08-11T15:11:04.536Z,1.50
2018-08-11T15:13:33.163Z,1.10
2018-08-11T15:16:01.870Z,1.30
2018-08-11T15:18:30.628Z,1.40
2018-08-11T15:20:59.439Z,1.20
2018-08-11T15:23:28.547Z,1.67
2018-08-11T15:25:57.408Z,1.37
2018-08-11T15:28:25.882Z,1.67
2018-08-11T15:30:54.328Z,1.40
2018-08-11T15:33:22.766Z,1.70
2018-08-11T15:35:51.797Z,1.30
2018-08-11T15:38:20.377Z,1.47
2018-08-11T15:40:48.773Z,1.40
2018-08-11T15:43:17.190Z,1.63
2018-08-11T15:45:45.892Z,1.40
2018-08-11T15:48:14.536Z,1.77
2018-08-11T15:50:43.129Z,1.43
2018-08-11T15:53:11.558Z,1.57
2018-08-11T15:55:40.364Z,1.30
2018-08-11T15:58:08.921Z,1.20
2018-08-11T16:00:37.788Z,2.00
2018-08-11T16:03:06.291Z,1.47
2018-08-11T16:05:34.805Z,1.40
2018-08-11T16:08:03.603Z,1.70
2018-08-11T16:10:32.142Z,1.60
2018-08-11T16:13:00.628Z,1.30
2018-08-11T16:15:29.200Z,1.50
2018-08-11T16:17:58.218Z,1.33
2018-08-11T16:20:26.784Z,1.30
2018-08-11T16:22:55.377Z,1.10
2018-08-11T16:25:23.959Z,1.40
2018-08-11T16:27:52.521Z,1.63
2018-08-11T16:30:21.324Z,1.60
2018-08-11T16:32:49.700Z,1.60
2018-08-11T16:35:18.088Z,1.50
2018-08-11T16:37:47.797Z,1.63
2018-08-11T16:40:16.139Z,1.40
2018-08-11T16:42:46.001Z,1.50
2018-08-11T16:45:14.683Z,1.67
2018-08-11T16:47:43.290Z,1.70
2018-08-11T16:50:11.684Z,1.90
2018-08-11T16:52:40.374Z,1.50
2018-08-11T16:55:08.832Z,1.30
2018-08-11T16:57:37.322Z,1.50
2018-08-11T17:00:08.700Z,1.77
2018-08-11T17:02:38.196Z,2.03
2018-08-11T17:05:07.251Z,1.90
2018-08-11T17:07:35.684Z,1.87
2018-08-11T17:10:04.838Z,1.60
2018-08-11T17:12:33.539Z,1.73
2018-08-11T17:15:02.200Z,1.33
2018-08-11T17:17:30.774Z,2.00
2018-08-11T17:19:59.124Z,2.17
2018-08-11T17:22:27.492Z,1.87
2018-08-11T17:24:55.881Z,1.70
2018-08-11T17:27:24.238Z,2.43
2018-08-11T17:29:53.416Z,1.93
2018-08-11T17:32:21.878Z,2.10
2018-08-11T17:34:50.259Z,1.93
2018-08-11T17:37:18.745Z,1.73
2018-08-11T17:39:47.225Z,2.00
2018-08-11T17:42:15.617Z,1.70
2018-08-11T17:44:47.073Z,1.53
2018-08-11T17:47:15.550Z,1.73
2018-08-11T17:49:44.071Z,1.80
2018-08-11T17:52:13.717Z,2.37
2018-08-11T17:54:43.855Z,2.10
2018-08-11T17:57:13.227Z,2.20
2018-08-11T17:59:42.287Z,2.10
2018-08-11T18:02:10.777Z,2.00
2018-08-11T18:04:39.214Z,2.10
2018-08-11T18:07:07.925Z,2.10
2018-08-11T18:09:36.352Z,2.03
2018-08-11T18:12:05.049Z,2.50
2018-08-11T18:14:33.517Z,2.30
2018-08-11T18:17:02.514Z,2.20
2018-08-11T18:19:30.908Z,2.40
2018-08-11T18:21:59.835Z,2.60
2018-08-11T18:24:28.584Z,2.53
2018-08-11T18:26:57.039Z,2.10
2018-08-11T18:29:25.416Z,1.73
2018-08-11T18:31:53.810Z,1.90
2018-08-11T18:34:22.255Z,2.00
2018-08-11T18:36:50.940Z,2.43
2018-08-11T18:39:19.398Z,2.00
2018-08-11T18:41:48.078Z,1.93
2018-08-11T18:44:16.642Z,2.27
2018-08-11T18:46:45.625Z,2.13
2018-08-11T18:49:16.755Z,2.00
2018-08-11T18:51:48.317Z,2.23
2018-08-11T18:54:17.104Z,2.03
2018-08-11T18:56:45.882Z,2.20
2018-08-11T18:59:14.896Z,2.00
2018-08-11T19:01:43.276Z,2.60
2018-08-11T19:04:11.729Z,2.00
2018-08-11T19:06:40.395Z,2.33
2018-08-11T19:09:10.529Z,1.63
2018-08-11T19:11:39.291Z,1.97
2018-08-11T19:14:09.301Z,1.97
2018-08-11T19:16:38.268Z,1.77
2018-08-11T19:19:06.675Z,2.00
2018-08-11T19:21:35.938Z,1.80
2018-08-11T19:24:04.737Z,2.40
2018-08-11T19:26:33.513Z,2.40
2018-08-11T19:29:02.336Z,1.80
2018-08-11T19:31:30.789Z,2.00
2018-08-11T19:33:59.411Z,2.00
2018-08-11T19:36:27.806Z,2.47
2018-08-11T19:38:56.519Z,2.10
2018-08-11T19:41:25.169Z,4.00
2018-08-11T19:43:53.587Z,3.10
2018-08-11T19:46:21.997Z,2.10
2018-08-11T19:48:50.666Z,1.73
2018-08-11T19:51:19.338Z,1.90
2018-08-11T19:53:48.128Z,2.77
2018-08-11T19:56:16.849Z,3.30
2018-08-11T19:58:45.245Z,3.20
2018-08-11T20:01:13.745Z,2.43
2018-08-11T20:03:42.399Z,2.13
2018-08-11T20:06:11.073Z,2.17
2018-08-11T20:08:40.146Z,2.13
2018-08-11T20:11:08.536Z,1.90
2018-08-11T20:13:36.917Z,2.20
2018-08-11T20:16:05.351Z,2.60
2018-08-11T20:18:33.995Z,2.00
2018-08-11T20:21:02.666Z,2.27
2018-08-11T20:23:31.095Z,2.10
2018-08-11T20:25:59.517Z,1.83
2018-08-11T20:28:27.887Z,2.00
2018-08-11T20:30:56.486Z,2.13
2018-08-11T20:33:25.063Z,1.63
2018-08-11T20:35:53.633Z,1.90
2018-08-11T20:38:22.207Z,2.13
2018-08-11T20:40:50.887Z,2.30
2018-08-11T20:43:19.251Z,2.90
2018-08-11T20:45:47.697Z,3.30
2018-08-11T20:48:16.088Z,3.30
2018-08-11T20:50:45.131Z,3.20
2018-08-11T20:53:13.678Z,3.20
2018-08-11T20:55:42.143Z,3.17
2018-08-11T20:58:10.540Z,3.00
2018-08-11T21:00:38.896Z,3.17
2018-08-11T21:03:09.708Z,3.30
2018-08-11T21:05:38.088Z,3.33
2018-08-11T21:08:07.018Z,3.53
2018-08-11T21:10:35.507Z,3.40
2018-08-11T21:13:04.272Z,3.00
2018-08-11T21:15:32.760Z,3.20
2018-08-11T21:18:01.175Z,3.10
2018-08-11T21:20:29.565Z,3.70
2018-08-11T21:22:57.967Z,3.23
2018-08-11T21:25:26.361Z,3.93
2018-08-11T21:27:54.792Z,3.80
2018-08-11T21:30:23.202Z,3.63
2018-08-11T21:32:51.631Z,3.60
2018-08-11T21:35:20.194Z,3.63
2018-08-11T21:37:48.604Z,3.90
2018-08-11T21:40:16.984Z,4.27
2018-08-11T21:42:45.373Z,3.53
2018-08-11T21:45:13.758Z,4.47
2018-08-11T21:47:42.693Z,4.80
2018-08-11T21:50:11.193Z,5.03
2018-08-11T21:52:39.933Z,4.93
2018-08-11T21:55:09.279Z,5.00
2018-08-11T21:57:38.417Z,4.50
2018-08-11T22:00:24.948Z,4.60
2018-08-11T22:02:53.476Z,4.77
2018-08-11T22:05:22.226Z,5.13
2018-08-11T22:07:50.866Z,5.07
2018-08-11T22:10:19.702Z,4.73
2018-08-11T22:12:48.289Z,4.57
2018-08-11T22:15:19.038Z,5.00
2018-08-11T22:17:48.443Z,4.43
2018-08-11T22:20:17.224Z,4.40
2018-08-11T22:22:45.841Z,4.77
2018-08-11T22:25:14.463Z,4.57
2018-08-11T22:27:43.670Z,4.70
2018-08-11T22:30:12.136Z,5.00
2018-08-11T22:32:40.548Z,4.97
2018-08-11T22:35:10.483Z,4.80
2018-08-11T22:37:38.866Z,5.47
2018-08-11T22:40:08.008Z,5.97
2018-08-11T22:42:37.272Z,5.50
2018-08-11T22:45:07.289Z,6.00
2018-08-11T22:47:35.835Z,6.23
2018-08-11T22:50:05.420Z,6.30
2018-08-11T22:52:34.146Z,6.83
2018-08-11T22:55:02.590Z,5.97
2018-08-11T22:57:30.994Z,5.93
2018-08-11T22:59:59.448Z,6.43
2018-08-11T23:02:27.887Z,6.20
2018-08-11T23:04:56.311Z,6.20
2018-08-11T23:07:24.678Z,6.70
2018-08-11T23:09:53.095Z,6.70
2018-08-11T23:12:21.503Z,7.37
2018-08-11T23:14:49.917Z,6.53
2018-08-11T23:17:18.390Z,6.40
2018-08-11T23:19:46.833Z,5.97
2018-08-11T23:22:15.241Z,6.20
2018-08-11T23:24:43.710Z,6.30
2018-08-11T23:27:12.156Z,6.33
2018-08-11T23:29:40.583Z,6.43
2018-08-11T23:32:08.998Z,7.10
2018-08-11T23:34:37.417Z,6.23
2018-08-11T23:37:05.847Z,6.93
2018-08-11T23:39:34.262Z,6.40
2018-08-11T23:42:02.710Z,6.77
2018-08-11T23:44:31.132Z,6.53
2018-08-11T23:46:59.541Z,6.57
2018-08-11T23:49:27.992Z,6.33
2018-08-11T23:51:56.415Z,6.60
2018-08-11T23:54:24.794Z,6.80
2018-08-11T23:56:53.890Z,7.17
2018-08-11T23:59:22.216Z,6.20
